sensor_id;sensor_type;location;lat;lon;timestamp;P1;durP1;ratioP1;P2;durP2;ratioP2
25609;SDS011;13479;49.044;8.716;2023-03-12T05:02:45;7.97;;;3.60;;
25609;SDS011;13479;49.044;8.716;2023-03-12T05:05:10;7.10;;;3.27;;
25609;SDS011;13479;49.044;8.716;2023-03-12T05:07:35;8.27;;;3.40;;
25609;SDS011;13479;49.044;8.716;2023-03-12T05:10:01;7.90;;;3.33;;
25609;SDS011;13479;49.044;8.716;2023-03-12T05:12:26;6.30;;;2.87;;
25609;SDS011;13479;49.044;8.716;2023-03-12T05:14:51;8.07;;;3.63;;
25609;SDS011;13479;49.044;8.716;2023-03-12T05:17:16;9.97;;;3.53;;
25609;SDS011;13479;49.044;8.716;2023-03-12T05:19:42;8.83;;;3.30;;
25609;SDS011;13479;49.044;8.716;2023-03-12T05:22:07;6.47;;;3.10;;
25609;SDS011;13479;49.044;8.716;2023-03-12T05:24:32;8.93;;;3.33;;
25609;SDS011;13479;49.044;8.716;2023-03-12T05:26:57;6.97;;;3.07;;
25609;SDS011;13479;49.044;8.716;2023-03-12T05:29:23;8.87;;;3.47;;
25609;SDS011;13479;49.044;8.716;2023-03-12T05:31:48;9.07;;;3.37;;
25609;SDS011;13479;49.044;8.716;2023-03-12T05:34:15;7.50;;;3.23;;
25609;SDS011;13479;49.044;8.716;2023-03-12T05:36:40;10.67;;;3.33;;
25609;SDS011;13479;49.044;8.716;2023-03-12T05:39:06;9.97;;;3.50;;
25609;SDS011;13479;49.044;8.716;2023-03-12T05:41:31;7.70;;;3.23;;
25609;SDS011;13479;49.044;8.716;2023-03-12T05:43:57;7.10;;;3.60;;
25609;SDS011;13479;49.044;8.716;2023-03-12T05:46:23;8.93;;;3.73;;
25609;SDS011;13479;49.044;8.716;2023-03-12T05:48:50;8.20;;;4.33;;
25609;SDS011;13479;49.044;8.716;2023-03-12T05:51:16;11.10;;;4.10;;
25609;SDS011;13479;49.044;8.716;2023-03-12T05:53:41;9.33;;;4.00;;
25609;SDS011;13479;49.044;8.716;2023-03-12T05:56:07;10.73;;;4.20;;
25609;SDS011;13479;49.044;8.716;2023-03-12T05:58:35;11.40;;;4.10;;
25609;SDS011;13479;49.044;8.716;2023-03-12T06:01:02;7.33;;;3.47;;
25609;SDS011;13479;49.044;8.716;2023-03-12T06:03:28;9.67;;;3.63;;
25609;SDS011;13479;49.044;8.716;2023-03-12T06:05:54;6.77;;;3.50;;
25609;SDS011;13479;49.044;8.716;2023-03-12T06:08:21;8.03;;;3.43;;
25609;SDS011;13479;49.044;8.716;2023-03-12T06:10:49;9.57;;;3.37;;
25609;SDS011;13479;49.044;8.716;2023-03-12T06:13:15;8.77;;;3.27;;
25609;SDS011;13479;49.044;8.716;2023-03-12T06:15:40;6.57;;;3.30;;
25609;SDS011;13479;49.044;8.716;2023-03-12T06:18:06;7.97;;;3.40;;
25609;SDS011;13479;49.044;8.716;2023-03-12T06:20:31;10.07;;;3.50;;
25609;SDS011;13479;49.044;8.716;2023-03-12T06:22:56;8.83;;;4.00;;
25609;SDS011;13479;49.044;8.716;2023-03-12T06:25:21;7.53;;;3.13;;
25609;SDS011;13479;49.044;8.716;2023-03-12T06:27:47;8.20;;;3.17;;
25609;SDS011;13479;49.044;8.716;2023-03-12T06:30:12;8.20;;;3.67;;
25609;SDS011;13479;49.044;8.716;2023-03-12T06:32:38;8.67;;;3.60;;
25609;SDS011;13479;49.044;8.716;2023-03-12T06:35:03;8.60;;;3.87;;
25609;SDS011;13479;49.044;8.716;2023-03-12T06:37:29;7.63;;;3.47;;
25609;SDS011;13479;49.044;8.716;2023-03-12T06:39:55;11.47;;;4.10;;
25609;SDS011;13479;49.044;8.716;2023-03-12T06:42:20;8.23;;;3.93;;
25609;SDS011;13479;49.044;8.716;2023-03-12T06:44:46;11.60;;;3.53;;
25609;SDS011;13479;49.044;8.716;2023-03-12T06:47:11;11.37;;;3.87;;
25609;SDS011;13479;49.044;8.716;2023-03-12T06:49:37;8.83;;;3.73;;
25609;SDS011;13479;49.044;8.716;2023-03-12T06:52:03;7.43;;;3.47;;
25609;SDS011;13479;49.044;8.716;2023-03-12T06:54:28;11.70;;;4.10;;
25609;SDS011;13479;49.044;8.716;2023-03-12T06:56:54;8.80;;;4.43;;
25609;SDS011;13479;49.044;8.716;2023-03-12T06:59:19;9.93;;;4.67;;
25609;SDS011;13479;49.044;8.716;2023-03-12T07:01:45;14.27;;;4.83;;
25609;SDS011;13479;49.044;8.716;2023-03-12T07:04:11;11.63;;;6.63;;
25609;SDS011;13479;49.044;8.716;2023-03-12T07:06:36;14.50;;;7.87;;
25609;SDS011;13479;49.044;8.716;2023-03-12T07:09:02;12.50;;;6.27;;
25609;SDS011;13479;49.044;8.716;2023-03-12T07:11:28;12.47;;;5.00;;
25609;SDS011;13479;49.044;8.716;2023-03-12T07:13:54;8.93;;;3.87;;
25609;SDS011;13479;49.044;8.716;2023-03-12T07:16:19;8.27;;;3.40;;
25609;SDS011;13479;49.044;8.716;2023-03-12T07:18:44;10.10;;;4.03;;
25609;SDS011;13479;49.044;8.716;2023-03-12T07:21:09;8.27;;;3.03;;
25609;SDS011;13479;49.044;8.716;2023-03-12T07:23:35;6.37;;;3.30;;
25609;SDS011;13479;49.044;8.716;2023-03-12T07:26:00;7.80;;;3.87;;
25609;SDS011;13479;49.044;8.716;2023-03-12T07:28:28;7.50;;;3.80;;
25609;SDS011;13479;49.044;8.716;2023-03-12T07:30:58;9.57;;;4.20;;
25609;SDS011;13479;49.044;8.716;2023-03-12T07:33:24;10.13;;;4.33;;
25609;SDS011;13479;49.044;8.716;2023-03-12T07:35:49;10.07;;;4.03;;
25609;SDS011;13479;49.044;8.716;2023-03-12T07:38:15;8.27;;;3.77;;
25609;SDS011;13479;49.044;8.716;2023-03-12T07:40:40;9.60;;;4.50;;
25609;SDS011;13479;49.044;8.716;2023-03-12T07:43:05;8.53;;;3.83;;
25609;SDS011;13479;49.044;8.716;2023-03-12T07:45:35;11.87;;;4.40;;
25609;SDS011;13479;49.044;8.716;2023-03-12T07:48:01;10.43;;;4.40;;
25609;SDS011;13479;49.044;8.716;2023-03-12T07:50:27;8.93;;;4.20;;
25609;SDS011;13479;49.044;8.716;2023-03-12T07:52:52;7.67;;;3.73;;
25609;SDS011;13479;49.044;8.716;2023-03-12T07:55:17;8.97;;;4.43;;
25609;SDS011;13479;49.044;8.716;2023-03-12T07:57:42;11.10;;;5.13;;
25609;SDS011;13479;49.044;8.716;2023-03-12T08:00:08;13.77;;;5.60;;
25609;SDS011;13479;49.044;8.716;2023-03-12T08:02:34;17.43;;;6.77;;
25609;SDS011;13479;49.044;8.716;2023-03-12T08:05:00;12.67;;;5.43;;
25609;SDS011;13479;49.044;8.716;2023-03-12T08:07:26;13.73;;;5.10;;
25609;SDS011;13479;49.044;8.716;2023-03-12T08:09:56;12.07;;;5.50;;
25609;SDS011;13479;49.044;8.716;2023-03-12T08:12:22;9.67;;;4.57;;
25609;SDS011;13479;49.044;8.716;2023-03-12T08:14:47;11.97;;;5.70;;
25609;SDS011;13479;49.044;8.716;2023-03-12T08:17:12;9.67;;;4.20;;
25609;SDS011;13479;49.044;8.716;2023-03-12T08:19:38;7.80;;;4.30;;
25609;SDS011;13479;49.044;8.716;2023-03-12T08:22:03;8.93;;;4.40;;
25609;SDS011;13479;49.044;8.716;2023-03-12T08:24:30;7.17;;;4.23;;
25609;SDS011;13479;49.044;8.716;2023-03-12T08:26:56;11.90;;;4.73;;
25609;SDS011;13479;49.044;8.716;2023-03-12T08:29:21;9.50;;;4.87;;
25609;SDS011;13479;49.044;8.716;2023-03-12T08:31:46;11.87;;;4.63;;
25609;SDS011;13479;49.044;8.716;2023-03-12T08:34:11;8.47;;;4.57;;
25609;SDS011;13479;49.044;8.716;2023-03-12T08:36:37;9.70;;;4.57;;
25609;SDS011;13479;49.044;8.716;2023-03-12T08:39:02;11.50;;;4.50;;
25609;SDS011;13479;49.044;8.716;2023-03-12T08:41:28;9.10;;;4.67;;
25609;SDS011;13479;49.044;8.716;2023-03-12T08:43:54;8.50;;;4.23;;
25609;SDS011;13479;49.044;8.716;2023-03-12T08:46:19;13.17;;;4.77;;
25609;SDS011;13479;49.044;8.716;2023-03-12T08:48:44;11.17;;;4.83;;
25609;SDS011;13479;49.044;8.716;2023-03-12T08:51:10;7.77;;;4.27;;
25609;SDS011;13479;49.044;8.716;2023-03-12T08:53:36;9.47;;;4.90;;
25609;SDS011;13479;49.044;8.716;2023-03-12T08:56:02;8.47;;;4.40;;
25609;SDS011;13479;49.044;8.716;2023-03-12T08:58:28;10.30;;;5.40;;
25609;SDS011;13479;49.044;8.716;2023-03-12T09:00:54;10.33;;;4.10;;
25609;SDS011;13479;49.044;8.716;2023-03-12T09:03:21;14.57;;;4.87;;
25609;SDS011;13479;49.044;8.716;2023-03-12T09:05:47;8.27;;;4.33;;
25609;SDS011;13479;49.044;8.716;2023-03-12T09:08:14;8.50;;;4.77;;
25609;SDS011;13479;49.044;8.716;2023-03-12T09:10:40;9.43;;;5.13;;
25609;SDS011;13479;49.044;8.716;2023-03-12T09:13:10;9.63;;;5.93;;
25609;SDS011;13479;49.044;8.716;2023-03-12T09:15:36;7.50;;;4.90;;
25609;SDS011;13479;49.044;8.716;2023-03-12T09:18:01;10.73;;;4.87;;
25609;SDS011;13479;49.044;8.716;2023-03-12T09:20:26;9.53;;;4.60;;
25609;SDS011;13479;49.044;8.716;2023-03-12T09:22:51;14.13;;;5.27;;
25609;SDS011;13479;49.044;8.716;2023-03-12T09:25:17;9.67;;;5.07;;
25609;SDS011;13479;49.044;8.716;2023-03-12T09:27:44;11.07;;;4.90;;
25609;SDS011;13479;49.044;8.716;2023-03-12T09:30:12;9.20;;;4.67;;
25609;SDS011;13479;49.044;8.716;2023-03-12T09:32:40;7.10;;;4.63;;
25609;SDS011;13479;49.044;8.716;2023-03-12T09:35:05;11.50;;;5.53;;
25609;SDS011;13479;49.044;8.716;2023-03-12T09:37:32;10.77;;;5.50;;
25609;SDS011;13479;49.044;8.716;2023-03-12T09:39:57;9.47;;;5.23;;
25609;SDS011;13479;49.044;8.716;2023-03-12T09:42:38;7.97;;;4.90;;
25609;SDS011;13479;49.044;8.716;2023-03-12T09:45:10;9.60;;;5.03;;
25609;SDS011;13479;49.044;8.716;2023-03-12T09:47:45;15.33;;;6.00;;
25609;SDS011;13479;49.044;8.716;2023-03-12T09:50:18;10.53;;;4.83;;
25609;SDS011;13479;49.044;8.716;2023-03-12T09:55:51;9.90;;;5.07;;
25609;SDS011;13479;49.044;8.716;2023-03-12T09:58:29;12.37;;;4.63;;
25609;SDS011;13479;49.044;8.716;2023-03-12T10:01:00;14.70;;;5.77;;
25609;SDS011;13479;49.044;8.716;2023-03-12T10:03:46;9.90;;;5.27;;
25609;SDS011;13479;49.044;8.716;2023-03-12T10:06:34;13.10;;;5.40;;
25609;SDS011;13479;49.044;8.716;2023-03-12T10:14:55;9.80;;;5.93;;
25609;SDS011;13479;49.044;8.716;2023-03-12T10:23:20;10.40;;;5.55;;
25609;SDS011;13479;49.044;8.716;2023-03-12T10:25:52;9.37;;;5.50;;
25609;SDS011;13479;49.044;8.716;2023-03-12T10:31:00;9.27;;;5.32;;
25609;SDS011;13479;49.044;8.716;2023-03-12T10:33:43;8.85;;;5.45;;
25609;SDS011;13479;49.044;8.716;2023-03-12T10:36:15;10.18;;;5.60;;
25609;SDS011;13479;49.044;8.716;2023-03-12T10:38:43;11.68;;;5.65;;
25609;SDS011;13479;49.044;8.716;2023-03-12T10:41:13;14.13;;;6.30;;
25609;SDS011;13479;49.044;8.716;2023-03-12T10:43:49;8.80;;;5.47;;
25609;SDS011;13479;49.044;8.716;2023-03-12T10:51:58;9.65;;;5.22;;
25609;SDS011;13479;49.044;8.716;2023-03-12T10:54:33;12.18;;;4.97;;
25609;SDS011;13479;49.044;8.716;2023-03-12T10:57:02;10.73;;;4.93;;
25609;SDS011;13479;49.044;8.716;2023-03-12T10:59:29;9.25;;;4.70;;
25609;SDS011;13479;49.044;8.716;2023-03-12T11:01:57;9.38;;;4.68;;
25609;SDS011;13479;49.044;8.716;2023-03-12T11:04:24;10.18;;;4.78;;
25609;SDS011;13479;49.044;8.716;2023-03-12T11:07:02;10.05;;;5.35;;
25609;SDS011;13479;49.044;8.716;2023-03-12T11:09:40;9.68;;;4.22;;
25609;SDS011;13479;49.044;8.716;2023-03-12T11:12:21;7.40;;;3.38;;
25609;SDS011;13479;49.044;8.716;2023-03-12T11:14:48;9.75;;;3.25;;
25609;SDS011;13479;49.044;8.716;2023-03-12T11:17:24;8.90;;;2.88;;
25609;SDS011;13479;49.044;8.716;2023-03-12T11:19:51;8.40;;;2.80;;
25609;SDS011;13479;49.044;8.716;2023-03-12T11:22:30;7.90;;;2.83;;
25609;SDS011;13479;49.044;8.716;2023-03-12T11:24:59;6.47;;;2.63;;
25609;SDS011;13479;49.044;8.716;2023-03-12T11:27:35;5.68;;;2.70;;
25609;SDS011;13479;49.044;8.716;2023-03-12T11:30:06;7.80;;;2.70;;
25609;SDS011;13479;49.044;8.716;2023-03-12T11:32:36;8.85;;;2.53;;
25609;SDS011;13479;49.044;8.716;2023-03-12T11:35:08;7.25;;;2.65;;
25609;SDS011;13479;49.044;8.716;2023-03-12T11:40:47;5.70;;;2.30;;
25609;SDS011;13479;49.044;8.716;2023-03-12T11:46:03;10.18;;;2.72;;
25609;SDS011;13479;49.044;8.716;2023-03-12T11:52:31;6.93;;;2.65;;
25609;SDS011;13479;49.044;8.716;2023-03-12T11:57:20;7.97;;;2.50;;
25609;SDS011;13479;49.044;8.716;2023-03-12T11:59:59;9.80;;;2.67;;
25609;SDS011;13479;49.044;8.716;2023-03-12T12:08:46;9.98;;;3.00;;
25609;SDS011;13479;49.044;8.716;2023-03-12T12:14:11;8.90;;;2.50;;
25609;SDS011;13479;49.044;8.716;2023-03-12T12:35:36;7.22;;;2.60;;
25609;SDS011;13479;49.044;8.716;2023-03-12T12:38:13;6.32;;;2.08;;
25609;SDS011;13479;49.044;8.716;2023-03-12T12:40:51;7.03;;;2.83;;
25609;SDS011;13479;49.044;8.716;2023-03-12T12:43:26;7.45;;;2.40;;
25609;SDS011;13479;49.044;8.716;2023-03-12T12:45:55;5.97;;;2.47;;
25609;SDS011;13479;49.044;8.716;2023-03-12T12:48:33;6.57;;;2.50;;
25609;SDS011;13479;49.044;8.716;2023-03-12T12:51:02;5.20;;;2.42;;
25609;SDS011;13479;49.044;8.716;2023-03-12T12:56:14;7.57;;;2.10;;
25609;SDS011;13479;49.044;8.716;2023-03-12T13:01:55;5.53;;;1.85;;
25609;SDS011;13479;49.044;8.716;2023-03-12T13:04:23;4.97;;;2.00;;
25609;SDS011;13479;49.044;8.716;2023-03-12T13:06:56;4.78;;;1.80;;
25609;SDS011;13479;49.044;8.716;2023-03-12T13:12:10;7.43;;;2.05;;
25609;SDS011;13479;49.044;8.716;2023-03-12T13:14:37;8.85;;;2.10;;
25609;SDS011;13479;49.044;8.716;2023-03-12T13:17:07;7.28;;;2.20;;
25609;SDS011;13479;49.044;8.716;2023-03-12T13:19:44;6.30;;;1.85;;
25609;SDS011;13479;49.044;8.716;2023-03-12T13:22:19;9.40;;;2.20;;
25609;SDS011;13479;49.044;8.716;2023-03-12T13:25:03;8.18;;;2.40;;
25609;SDS011;13479;49.044;8.716;2023-03-12T13:27:43;6.53;;;1.90;;
25609;SDS011;13479;49.044;8.716;2023-03-12T13:43:12;8.75;;;2.00;;
25609;SDS011;13479;49.044;8.716;2023-03-12T13:45:57;12.48;;;2.72;;
25609;SDS011;13479;49.044;8.716;2023-03-12T13:48:25;7.20;;;2.30;;
25609;SDS011;13479;49.044;8.716;2023-03-12T13:50:56;13.50;;;2.65;;
25609;SDS011;13479;49.044;8.716;2023-03-12T13:53:24;10.55;;;2.50;;
25609;SDS011;13479;49.044;8.716;2023-03-12T13:56:00;12.15;;;2.50;;
25609;SDS011;13479;49.044;8.716;2023-03-12T13:58:29;13.15;;;2.92;;
25609;SDS011;13479;49.044;8.716;2023-03-12T14:01:02;9.85;;;2.50;;
25609;SDS011;13479;49.044;8.716;2023-03-12T14:17:09;9.48;;;2.22;;
25609;SDS011;13479;49.044;8.716;2023-03-12T14:19:39;15.13;;;2.72;;
25609;SDS011;13479;49.044;8.716;2023-03-12T14:22:09;13.52;;;2.42;;
25609;SDS011;13479;49.044;8.716;2023-03-12T14:24:38;13.40;;;2.83;;
25609;SDS011;13479;49.044;8.716;2023-03-12T14:27:10;13.07;;;2.88;;
25609;SDS011;13479;49.044;8.716;2023-03-12T14:29:41;11.95;;;2.63;;
25609;SDS011;13479;49.044;8.716;2023-03-12T14:32:13;10.85;;;2.40;;
25609;SDS011;13479;49.044;8.716;2023-03-12T14:34:46;10.77;;;2.95;;
25609;SDS011;13479;49.044;8.716;2023-03-12T14:40:24;11.57;;;2.10;;
25609;SDS011;13479;49.044;8.716;2023-03-12T14:42:58;13.43;;;2.58;;
25609;SDS011;13479;49.044;8.716;2023-03-12T14:45:24;10.48;;;2.60;;
25609;SDS011;13479;49.044;8.716;2023-03-12T14:47:52;11.38;;;2.28;;
25609;SDS011;13479;49.044;8.716;2023-03-12T14:50:22;10.95;;;2.50;;
25609;SDS011;13479;49.044;8.716;2023-03-12T14:52:50;10.18;;;2.17;;
25609;SDS011;13479;49.044;8.716;2023-03-12T14:55:23;11.55;;;2.45;;
25609;SDS011;13479;49.044;8.716;2023-03-12T14:58:06;11.32;;;2.40;;
25609;SDS011;13479;49.044;8.716;2023-03-12T15:00:43;9.52;;;2.25;;
25609;SDS011;13479;49.044;8.716;2023-03-12T15:03:18;10.75;;;2.53;;
25609;SDS011;13479;49.044;8.716;2023-03-12T15:05:47;11.10;;;2.35;;
25609;SDS011;13479;49.044;8.716;2023-03-12T15:08:13;14.63;;;2.53;;
25609;SDS011;13479;49.044;8.716;2023-03-12T15:10:45;8.93;;;2.13;;
25609;SDS011;13479;49.044;8.716;2023-03-12T15:13:12;15.82;;;2.42;;
25609;SDS011;13479;49.044;8.716;2023-03-12T15:15:47;14.35;;;2.47;;
25609;SDS011;13479;49.044;8.716;2023-03-12T15:18:17;11.00;;;2.40;;
25609;SDS011;13479;49.044;8.716;2023-03-12T15:20:45;13.40;;;2.60;;
25609;SDS011;13479;49.044;8.716;2023-03-12T15:23:12;11.05;;;2.40;;
25609;SDS011;13479;49.044;8.716;2023-03-12T15:25:38;11.23;;;2.25;;
25609;SDS011;13479;49.044;8.716;2023-03-12T15:28:23;11.73;;;2.33;;
25609;SDS011;13479;49.044;8.716;2023-03-12T15:31:04;8.27;;;1.88;;
25609;SDS011;13479;49.044;8.716;2023-03-12T15:33:35;13.00;;;2.22;;
25609;SDS011;13479;49.044;8.716;2023-03-12T15:38:42;12.52;;;2.33;;
25609;SDS011;13479;49.044;8.716;2023-03-12T15:41:17;9.85;;;2.45;;
25609;SDS011;13479;49.044;8.716;2023-03-12T15:43:55;10.60;;;1.95;;
25609;SDS011;13479;49.044;8.716;2023-03-12T15:46:23;13.20;;;2.30;;
25609;SDS011;13479;49.044;8.716;2023-03-12T15:48:56;12.45;;;2.22;;
25609;SDS011;13479;49.044;8.716;2023-03-12T15:51:32;9.30;;;2.28;;
25609;SDS011;13479;49.044;8.716;2023-03-12T15:54:04;12.90;;;1.90;;
25609;SDS011;13479;49.044;8.716;2023-03-12T15:56:45;8.13;;;2.10;;
25609;SDS011;13479;49.044;8.716;2023-03-12T16:01:46;11.68;;;2.17;;
25609;SDS011;13479;49.044;8.716;2023-03-12T16:04:12;12.15;;;2.28;;
25609;SDS011;13479;49.044;8.716;2023-03-12T16:06:38;10.40;;;2.03;;
25609;SDS011;13479;49.044;8.716;2023-03-12T16:09:03;9.48;;;2.13;;
25609;SDS011;13479;49.044;8.716;2023-03-12T16:11:30;11.88;;;2.28;;
25609;SDS011;13479;49.044;8.716;2023-03-12T16:16:46;13.93;;;1.90;;
25609;SDS011;13479;49.044;8.716;2023-03-12T16:19:12;10.35;;;2.20;;
25609;SDS011;13479;49.044;8.716;2023-03-12T16:21:39;11.18;;;2.05;;
25609;SDS011;13479;49.044;8.716;2023-03-12T16:24:04;11.18;;;2.38;;
25609;SDS011;13479;49.044;8.716;2023-03-12T16:26:31;15.10;;;2.30;;
25609;SDS011;13479;49.044;8.716;2023-03-12T16:28:59;12.40;;;2.40;;
25609;SDS011;13479;49.044;8.716;2023-03-12T16:31:24;10.40;;;2.45;;
25609;SDS011;13479;49.044;8.716;2023-03-12T16:33:50;10.48;;;2.20;;
25609;SDS011;13479;49.044;8.716;2023-03-12T16:36:15;9.63;;;2.33;;
25609;SDS011;13479;49.044;8.716;2023-03-12T16:38:43;8.15;;;2.33;;
25609;SDS011;13479;49.044;8.716;2023-03-12T16:41:12;14.38;;;2.33;;
25609;SDS011;13479;49.044;8.716;2023-03-12T16:43:40;10.32;;;2.33;;
25609;SDS011;13479;49.044;8.716;2023-03-12T16:46:08;13.18;;;2.60;;
25609;SDS011;13479;49.044;8.716;2023-03-12T16:48:34;12.88;;;2.35;;
25609;SDS011;13479;49.044;8.716;2023-03-12T16:51:00;12.50;;;2.63;;
25609;SDS011;13479;49.044;8.716;2023-03-12T16:53:26;8.40;;;2.30;;
25609;SDS011;13479;49.044;8.716;2023-03-12T16:55:55;10.45;;;2.10;;
25609;SDS011;13479;49.044;8.716;2023-03-12T16:58:22;12.75;;;2.13;;
25609;SDS011;13479;49.044;8.716;2023-03-12T17:00:49;13.90;;;2.28;;
25609;SDS011;13479;49.044;8.716;2023-03-12T17:03:20;13.98;;;2.58;;
25609;SDS011;13479;49.044;8.716;2023-03-12T17:05:52;13.85;;;2.50;;
25609;SDS011;13479;49.044;8.716;2023-03-12T17:08:18;12.98;;;3.05;;
25609;SDS011;13479;49.044;8.716;2023-03-12T17:10:43;12.10;;;2.40;;
25609;SDS011;13479;49.044;8.716;2023-03-12T17:13:14;11.85;;;3.05;;
25609;SDS011;13479;49.044;8.716;2023-03-12T17:15:42;17.40;;;5.43;;
25609;SDS011;13479;49.044;8.716;2023-03-12T17:18:09;11.20;;;3.00;;
25609;SDS011;13479;49.044;8.716;2023-03-12T17:20:35;16.35;;;3.72;;
25609;SDS011;13479;49.044;8.716;2023-03-12T17:23:03;11.82;;;3.17;;
25609;SDS011;13479;49.044;8.716;2023-03-12T17:25:30;12.60;;;2.85;;
25609;SDS011;13479;49.044;8.716;2023-03-12T17:27:58;14.48;;;3.30;;
25609;SDS011;13479;49.044;8.716;2023-03-12T17:30:25;14.15;;;3.35;;
25609;SDS011;13479;49.044;8.716;2023-03-12T17:32:51;14.73;;;3.22;;
25609;SDS011;13479;49.044;8.716;2023-03-12T17:35:18;23.52;;;3.42;;
25609;SDS011;13479;49.044;8.716;2023-03-12T17:37:44;12.55;;;3.00;;
25609;SDS011;13479;49.044;8.716;2023-03-12T17:40:12;15.20;;;3.25;;
25609;SDS011;13479;49.044;8.716;2023-03-12T17:42:38;13.80;;;3.00;;
25609;SDS011;13479;49.044;8.716;2023-03-12T17:45:04;11.60;;;2.88;;
25609;SDS011;13479;49.044;8.716;2023-03-12T17:47:30;14.05;;;3.63;;
25609;SDS011;13479;49.044;8.716;2023-03-12T17:49:56;9.82;;;3.03;;
25609;SDS011;13479;49.044;8.716;2023-03-12T17:52:22;10.88;;;2.42;;
25609;SDS011;13479;49.044;8.716;2023-03-12T17:54:47;16.85;;;2.97;;
25609;SDS011;13479;49.044;8.716;2023-03-12T17:57:12;13.55;;;3.10;;
25609;SDS011;13479;49.044;8.716;2023-03-12T17:59:38;15.98;;;3.97;;
25609;SDS011;13479;49.044;8.716;2023-03-12T18:02:03;16.27;;;3.67;;
25609;SDS011;13479;49.044;8.716;2023-03-12T18:04:28;17.05;;;3.58;;
25609;SDS011;13479;49.044;8.716;2023-03-12T18:06:54;14.15;;;3.92;;
25609;SDS011;13479;49.044;8.716;2023-03-12T18:09:19;18.23;;;4.15;;
25609;SDS011;13479;49.044;8.716;2023-03-12T18:11:44;18.98;;;4.65;;
25609;SDS011;13479;49.044;8.716;2023-03-12T18:14:10;15.57;;;4.15;;
25609;SDS011;13479;49.044;8.716;2023-03-12T18:16:35;19.23;;;5.13;;
25609;SDS011;13479;49.044;8.716;2023-03-12T18:19:01;32.10;;;14.55;;
25609;SDS011;13479;49.044;8.716;2023-03-12T18:21:26;23.60;;;6.60;;
25609;SDS011;13479;49.044;8.716;2023-03-12T18:23:51;15.05;;;4.55;;
25609;SDS011;13479;49.044;8.716;2023-03-12T18:26:17;11.55;;;3.53;;
25609;SDS011;13479;49.044;8.716;2023-03-12T18:28:43;17.48;;;3.85;;
25609;SDS011;13479;49.044;8.716;2023-03-12T18:31:08;15.20;;;3.63;;
25609;SDS011;13479;49.044;8.716;2023-03-12T18:33:33;17.95;;;5.07;;
25609;SDS011;13479;49.044;8.716;2023-03-12T18:36:02;19.67;;;3.72;;
25609;SDS011;13479;49.044;8.716;2023-03-12T18:38:27;18.10;;;3.97;;
25609;SDS011;13479;49.044;8.716;2023-03-12T18:41:02;19.60;;;4.10;;
25609;SDS011;13479;49.044;8.716;2023-03-12T18:43:29;16.83;;;4.18;;
25609;SDS011;13479;49.044;8.716;2023-03-12T18:45:55;15.20;;;3.40;;
25609;SDS011;13479;49.044;8.716;2023-03-12T18:48:20;18.65;;;3.40;;
25609;SDS011;13479;49.044;8.716;2023-03-12T18:50:45;16.83;;;3.50;;
25609;SDS011;13479;49.044;8.716;2023-03-12T18:53:10;21.80;;;4.30;;
25609;SDS011;13479;49.044;8.716;2023-03-12T18:55:35;21.17;;;4.43;;
25609;SDS011;13479;49.044;8.716;2023-03-12T18:58:01;16.98;;;4.22;;
25609;SDS011;13479;49.044;8.716;2023-03-12T19:00:26;14.85;;;3.80;;
25609;SDS011;13479;49.044;8.716;2023-03-12T19:02:52;15.43;;;3.67;;
25609;SDS011;13479;49.044;8.716;2023-03-12T19:05:17;15.93;;;3.80;;
25609;SDS011;13479;49.044;8.716;2023-03-12T19:07:42;15.30;;;2.90;;
25609;SDS011;13479;49.044;8.716;2023-03-12T19:10:08;11.43;;;3.08;;
25609;SDS011;13479;49.044;8.716;2023-03-12T19:12:34;18.23;;;3.50;;
25609;SDS011;13479;49.044;8.716;2023-03-12T19:15:00;12.82;;;3.28;;
25609;SDS011;13479;49.044;8.716;2023-03-12T19:17:25;12.75;;;3.30;;
25609;SDS011;13479;49.044;8.716;2023-03-12T19:19:50;13.82;;;3.10;;
25609;SDS011;13479;49.044;8.716;2023-03-12T19:22:16;14.10;;;2.95;;
25609;SDS011;13479;49.044;8.716;2023-03-12T19:24:41;12.38;;;2.92;;
25609;SDS011;13479;49.044;8.716;2023-03-12T19:27:07;12.45;;;2.83;;
25609;SDS011;13479;49.044;8.716;2023-03-12T19:29:33;12.85;;;2.88;;
25609;SDS011;13479;49.044;8.716;2023-03-12T19:31:58;12.68;;;2.78;;
25609;SDS011;13479;49.044;8.716;2023-03-12T19:34:23;10.93;;;2.55;;
25609;SDS011;13479;49.044;8.716;2023-03-12T19:36:49;13.32;;;3.05;;
25609;SDS011;13479;49.044;8.716;2023-03-12T19:39:14;15.25;;;3.25;;
25609;SDS011;13479;49.044;8.716;2023-03-12T19:41:39;15.23;;;2.72;;
25609;SDS011;13479;49.044;8.716;2023-03-12T19:44:05;11.75;;;2.90;;
25609;SDS011;13479;49.044;8.716;2023-03-12T19:46:31;11.43;;;2.72;;
25609;SDS011;13479;49.044;8.716;2023-03-12T19:48:56;9.98;;;2.78;;
25609;SDS011;13479;49.044;8.716;2023-03-12T19:51:21;10.75;;;2.58;;
25609;SDS011;13479;49.044;8.716;2023-03-12T19:53:46;14.43;;;2.72;;
25609;SDS011;13479;49.044;8.716;2023-03-12T19:56:12;15.02;;;2.67;;
25609;SDS011;13479;49.044;8.716;2023-03-12T19:58:37;16.05;;;2.95;;
25609;SDS011;13479;49.044;8.716;2023-03-12T20:01:02;12.45;;;2.53;;
25609;SDS011;13479;49.044;8.716;2023-03-12T20:03:28;14.13;;;2.80;;
25609;SDS011;13479;49.044;8.716;2023-03-12T20:05:54;11.80;;;3.15;;
25609;SDS011;13479;49.044;8.716;2023-03-12T20:08:20;12.57;;;3.20;;
25609;SDS011;13479;49.044;8.716;2023-03-12T20:10:46;12.48;;;3.20;;
25609;SDS011;13479;49.044;8.716;2023-03-12T20:13:12;14.15;;;4.40;;
25609;SDS011;13479;49.044;8.716;2023-03-12T20:15:41;11.65;;;3.85;;
25609;SDS011;13479;49.044;8.716;2023-03-12T20:18:11;18.42;;;6.15;;
25609;SDS011;13479;49.044;8.716;2023-03-12T20:20:37;16.13;;;3.97;;
25609;SDS011;13479;49.044;8.716;2023-03-12T20:23:03;16.65;;;3.63;;
25609;SDS011;13479;49.044;8.716;2023-03-12T20:25:28;14.80;;;3.30;;
25609;SDS011;13479;49.044;8.716;2023-03-12T20:27:53;11.18;;;4.00;;
25609;SDS011;13479;49.044;8.716;2023-03-12T20:30:20;14.02;;;3.80;;
25609;SDS011;13479;49.044;8.716;2023-03-12T20:32:46;15.07;;;4.97;;
25609;SDS011;13479;49.044;8.716;2023-03-12T20:35:11;13.20;;;3.22;;
25609;SDS011;13479;49.044;8.716;2023-03-12T20:37:36;12.90;;;2.45;;
25609;SDS011;13479;49.044;8.716;2023-03-12T20:40:01;8.55;;;2.55;;
25609;SDS011;13479;49.044;8.716;2023-03-12T20:42:27;9.65;;;2.53;;
25609;SDS011;13479;49.044;8.716;2023-03-12T20:44:52;10.73;;;2.80;;
25609;SDS011;13479;49.044;8.716;2023-03-12T20:47:17;15.88;;;2.33;;
25609;SDS011;13479;49.044;8.716;2023-03-12T20:49:42;13.50;;;2.58;;
25609;SDS011;13479;49.044;8.716;2023-03-12T20:52:08;12.93;;;2.42;;
25609;SDS011;13479;49.044;8.716;2023-03-12T20:54:33;8.20;;;2.13;;
25609;SDS011;13479;49.044;8.716;2023-03-12T20:56:58;10.68;;;2.65;;
25609;SDS011;13479;49.044;8.716;2023-03-12T20:59:23;11.32;;;2.55;;
25609;SDS011;13479;49.044;8.716;2023-03-12T21:01:49;12.43;;;2.45;;
25609;SDS011;13479;49.044;8.716;2023-03-12T21:04:14;11.20;;;2.20;;
25609;SDS011;13479;49.044;8.716;2023-03-12T21:06:39;13.63;;;2.78;;
25609;SDS011;13479;49.044;8.716;2023-03-12T21:09:05;11.10;;;2.05;;
25609;SDS011;13479;49.044;8.716;2023-03-12T21:11:31;11.40;;;2.28;;
25609;SDS011;13479;49.044;8.716;2023-03-12T21:13:56;11.52;;;2.10;;
25609;SDS011;13479;49.044;8.716;2023-03-12T21:16:21;11.60;;;1.90;;
25609;SDS011;13479;49.044;8.716;2023-03-12T21:18:46;12.40;;;2.53;;
25609;SDS011;13479;49.044;8.716;2023-03-12T21:21:12;10.57;;;2.38;;
25609;SDS011;13479;49.044;8.716;2023-03-12T21:23:37;10.90;;;2.28;;
25609;SDS011;13479;49.044;8.716;2023-03-12T21:26:03;12.73;;;2.53;;
25609;SDS011;13479;49.044;8.716;2023-03-12T21:28:30;8.23;;;1.80;;
25609;SDS011;13479;49.044;8.716;2023-03-12T21:31:02;10.77;;;2.33;;
25609;SDS011;13479;49.044;8.716;2023-03-12T21:33:38;10.00;;;2.08;;
25609;SDS011;13479;49.044;8.716;2023-03-12T21:36:05;13.45;;;2.20;;